sensor_id;sensor_type;location;lat;lon;timestamp;pressure;altitude;pressure_sealevel;temperature;humidity
83424;BME280;73355;49.044;8.686;2024-03-23T00:53:25;98875.00;;;12.23;65.03
83424;BME280;73355;49.044;8.686;2024-03-23T00:55:51;98843.34;;;12.25;65.11
83424;BME280;73355;49.044;8.686;2024-03-23T00:58:17;98845.22;;;12.28;64.49
83424;BME280;73355;49.044;8.686;2024-03-23T01:00:42;98848.38;;;12.27;64.57
83424;BME280;73355;49.044;8.686;2024-03-23T01:03:08;98846.41;;;12.27;64.45
83424;BME280;73355;49.044;8.686;2024-03-23T01:05:36;98844.44;;;12.28;64.56
83424;BME280;73355;49.044;8.686;2024-03-23T01:08:02;98838.09;;;12.31;64.80
83424;BME280;73355;49.044;8.686;2024-03-23T01:10:27;98839.22;;;12.33;64.55
83424;BME280;73355;49.044;8.686;2024-03-23T01:12:53;98839.84;;;12.37;64.30
83424;BME280;73355;49.044;8.686;2024-03-23T01:15:18;98829.38;;;12.36;63.98
83424;BME280;73355;49.044;8.686;2024-03-23T01:17:50;98824.38;;;12.34;64.16
83424;BME280;73355;49.044;8.686;2024-03-23T01:20:15;98824.69;;;12.36;64.22
83424;BME280;73355;49.044;8.686;2024-03-23T01:22:41;98822.63;;;12.40;64.07
83424;BME280;73355;49.044;8.686;2024-03-23T01:25:07;98804.72;;;12.39;63.90
83424;BME280;73355;49.044;8.686;2024-03-23T01:27:32;98806.69;;;12.39;63.99
83424;BME280;73355;49.044;8.686;2024-03-23T01:29:59;98800.88;;;12.37;63.99
83424;BME280;73355;49.044;8.686;2024-03-23T01:32:24;98803.63;;;12.37;64.04
83424;BME280;73355;49.044;8.686;2024-03-23T01:34:50;98809.53;;;12.35;64.23
83424;BME280;73355;49.044;8.686;2024-03-23T01:37:17;98806.47;;;12.33;64.17
83424;BME280;73355;49.044;8.686;2024-03-23T01:39:43;98805.69;;;12.33;64.04
83424;BME280;73355;49.044;8.686;2024-03-23T01:42:08;98801.44;;;12.32;64.14
83424;BME280;73355;49.044;8.686;2024-03-23T01:44:33;98808.22;;;12.27;64.13
83424;BME280;73355;49.044;8.686;2024-03-23T01:46:59;98803.19;;;12.26;63.92
83424;BME280;73355;49.044;8.686;2024-03-23T01:49:24;98802.53;;;12.22;64.16
83424;BME280;73355;49.044;8.686;2024-03-23T01:51:55;98800.34;;;12.17;64.41
83424;BME280;73355;49.044;8.686;2024-03-23T01:54:21;98795.88;;;12.10;64.04
83424;BME280;73355;49.044;8.686;2024-03-23T01:56:48;98793.34;;;12.03;64.41
83424;BME280;73355;49.044;8.686;2024-03-23T01:59:14;98784.88;;;12.01;64.57
83424;BME280;73355;49.044;8.686;2024-03-23T02:01:40;98788.78;;;12.00;64.83
83424;BME280;73355;49.044;8.686;2024-03-23T02:04:05;98780.19;;;12.02;64.89
83424;BME280;73355;49.044;8.686;2024-03-23T02:06:31;98785.09;;;12.07;64.81
83424;BME280;73355;49.044;8.686;2024-03-23T02:08:56;98776.78;;;12.10;65.02
83424;BME280;73355;49.044;8.686;2024-03-23T02:11:28;98761.53;;;12.13;64.63
83424;BME280;73355;49.044;8.686;2024-03-23T02:13:53;98764.97;;;12.13;64.73
83424;BME280;73355;49.044;8.686;2024-03-23T02:16:19;98767.41;;;12.11;64.83
83424;BME280;73355;49.044;8.686;2024-03-23T02:21:48;98765.22;;;12.06;64.83
83424;BME280;73355;49.044;8.686;2024-03-23T02:24:14;98758.66;;;12.04;65.14
83424;BME280;73355;49.044;8.686;2024-03-23T02:26:39;98755.94;;;12.04;64.83
83424;BME280;73355;49.044;8.686;2024-03-23T02:29:04;98753.97;;;12.04;65.10
83424;BME280;73355;49.044;8.686;2024-03-23T02:31:30;98758.22;;;12.05;64.96
83424;BME280;73355;49.044;8.686;2024-03-23T02:33:55;98757.91;;;12.03;65.11
83424;BME280;73355;49.044;8.686;2024-03-23T02:36:24;98755.16;;;12.03;65.31
83424;BME280;73355;49.044;8.686;2024-03-23T02:38:49;98757.34;;;12.08;65.18
83424;BME280;73355;49.044;8.686;2024-03-23T02:41:15;98740.13;;;12.11;64.82
83424;BME280;73355;49.044;8.686;2024-03-23T02:43:40;98749.59;;;12.19;64.85
83424;BME280;73355;49.044;8.686;2024-03-23T02:46:06;98737.81;;;12.22;64.44
83424;BME280;73355;49.044;8.686;2024-03-23T02:48:31;98737.59;;;12.29;64.57
83424;BME280;73355;49.044;8.686;2024-03-23T02:50:57;98740.75;;;12.40;64.49
83424;BME280;73355;49.044;8.686;2024-03-23T02:53:22;98729.06;;;12.53;64.21
83424;BME280;73355;49.044;8.686;2024-03-23T02:55:47;98726.72;;;12.64;63.84
83424;BME280;73355;49.044;8.686;2024-03-23T02:58:22;98716.41;;;12.80;63.61
83424;BME280;73355;49.044;8.686;2024-03-23T03:00:51;98717.09;;;12.94;63.31
83424;BME280;73355;49.044;8.686;2024-03-23T03:03:16;98721.00;;;13.05;62.83
83424;BME280;73355;49.044;8.686;2024-03-23T03:05:42;98719.75;;;13.19;62.58
83424;BME280;73355;49.044;8.686;2024-03-23T03:08:07;98730.16;;;13.33;62.08
83424;BME280;73355;49.044;8.686;2024-03-23T03:10:33;98738.63;;;13.48;61.69
83424;BME280;73355;49.044;8.686;2024-03-23T03:13:00;98737.16;;;13.56;61.55
83424;BME280;73355;49.044;8.686;2024-03-23T03:15:26;98725.50;;;13.64;60.92
83424;BME280;73355;49.044;8.686;2024-03-23T03:17:51;98728.28;;;13.74;60.87
83424;BME280;73355;49.044;8.686;2024-03-23T03:20:16;98729.97;;;13.80;60.70
83424;BME280;73355;49.044;8.686;2024-03-23T03:22:43;98728.47;;;13.79;60.36
83424;BME280;73355;49.044;8.686;2024-03-23T03:25:08;98723.91;;;13.76;60.62
83424;BME280;73355;49.044;8.686;2024-03-23T03:27:44;98722.03;;;13.73;60.79
83424;BME280;73355;49.044;8.686;2024-03-23T03:30:09;98721.75;;;13.71;60.92
83424;BME280;73355;49.044;8.686;2024-03-23T03:32:35;98721.28;;;13.73;61.08
83424;BME280;73355;49.044;8.686;2024-03-23T03:35:01;98712.91;;;13.67;61.22
83424;BME280;73355;49.044;8.686;2024-03-23T03:37:29;98726.28;;;13.65;61.58
83424;BME280;73355;49.044;8.686;2024-03-23T03:39:55;98714.13;;;13.66;61.62
83424;BME280;73355;49.044;8.686;2024-03-23T03:42:21;98704.97;;;13.60;61.77
83424;BME280;73355;49.044;8.686;2024-03-23T03:44:46;98699.50;;;13.60;61.79
83424;BME280;73355;49.044;8.686;2024-03-23T03:47:12;98699.19;;;13.58;61.63
83424;BME280;73355;49.044;8.686;2024-03-23T03:49:37;98691.44;;;13.56;61.96
83424;BME280;73355;49.044;8.686;2024-03-23T03:52:03;98706.34;;;13.55;62.01
83424;BME280;73355;49.044;8.686;2024-03-23T03:54:29;98693.09;;;13.54;62.23
83424;BME280;73355;49.044;8.686;2024-03-23T03:56:54;98688.84;;;13.53;62.20
83424;BME280;73355;49.044;8.686;2024-03-23T03:59:20;98696.47;;;13.58;61.85
83424;BME280;73355;49.044;8.686;2024-03-23T04:01:45;98702.06;;;13.54;61.90
83424;BME280;73355;49.044;8.686;2024-03-23T04:04:11;98704.47;;;13.52;62.10
83424;BME280;73355;49.044;8.686;2024-03-23T04:06:36;98707.22;;;13.52;61.97
83424;BME280;73355;49.044;8.686;2024-03-23T04:09:02;98723.63;;;13.52;62.09
83424;BME280;73355;49.044;8.686;2024-03-23T04:11:27;98722.09;;;13.51;62.17
83424;BME280;73355;49.044;8.686;2024-03-23T04:13:53;98709.63;;;13.50;62.07
83424;BME280;73355;49.044;8.686;2024-03-23T04:16:27;98710.53;;;13.47;62.25
83424;BME280;73355;49.044;8.686;2024-03-23T04:18:55;98698.06;;;13.46;62.61
83424;BME280;73355;49.044;8.686;2024-03-23T04:21:23;98700.81;;;13.46;62.48
83424;BME280;73355;49.044;8.686;2024-03-23T04:23:49;98697.31;;;13.46;61.78
83424;BME280;73355;49.044;8.686;2024-03-23T04:26:15;98690.78;;;13.43;61.72
83424;BME280;73355;49.044;8.686;2024-03-23T04:28:40;98702.59;;;13.40;61.68
83424;BME280;73355;49.044;8.686;2024-03-23T04:31:06;98699.09;;;13.40;61.39
83424;BME280;73355;49.044;8.686;2024-03-23T04:33:44;98705.31;;;13.40;61.23
83424;BME280;73355;49.044;8.686;2024-03-23T04:36:09;98699.09;;;13.40;60.53
83424;BME280;73355;49.044;8.686;2024-03-23T04:38:35;98708.00;;;13.31;60.52
83424;BME280;73355;49.044;8.686;2024-03-23T04:41:01;98722.13;;;13.30;60.44
83424;BME280;73355;49.044;8.686;2024-03-23T04:43:27;98719.50;;;13.26;60.35
83424;BME280;73355;49.044;8.686;2024-03-23T04:45:52;98723.00;;;13.27;60.32
83424;BME280;73355;49.044;8.686;2024-03-23T04:48:21;98727.63;;;13.17;60.37
83424;BME280;73355;49.044;8.686;2024-03-23T04:50:47;98733.09;;;13.17;60.45
83424;BME280;73355;49.044;8.686;2024-03-23T04:53:13;98733.66;;;13.12;60.81
83424;BME280;73355;49.044;8.686;2024-03-23T04:58:17;98723.72;;;13.05;61.25
83424;BME280;73355;49.044;8.686;2024-03-23T05:00:42;98729.91;;;12.97;62.02
83424;BME280;73355;49.044;8.686;2024-03-23T05:03:07;98731.22;;;12.92;62.72
83424;BME280;73355;49.044;8.686;2024-03-23T05:05:33;98740.09;;;12.83;62.84
83424;BME280;73355;49.044;8.686;2024-03-23T05:08:01;98739.13;;;12.77;63.07
83424;BME280;73355;49.044;8.686;2024-03-23T05:10:27;98739.91;;;12.65;63.75
83424;BME280;73355;49.044;8.686;2024-03-23T05:12:52;98735.03;;;12.60;64.22
83424;BME280;73355;49.044;8.686;2024-03-23T05:15:18;98739.50;;;12.54;64.87
83424;BME280;73355;49.044;8.686;2024-03-23T05:17:43;98741.28;;;12.48;65.34
83424;BME280;73355;49.044;8.686;2024-03-23T05:20:09;98749.25;;;12.42;65.69
83424;BME280;73355;49.044;8.686;2024-03-23T05:22:38;98746.78;;;12.35;65.73
83424;BME280;73355;49.044;8.686;2024-03-23T05:25:04;98754.41;;;12.28;65.78
83424;BME280;73355;49.044;8.686;2024-03-23T05:27:34;98757.34;;;12.21;66.08
83424;BME280;73355;49.044;8.686;2024-03-23T05:30:00;98765.22;;;12.19;66.02
83424;BME280;73355;49.044;8.686;2024-03-23T05:32:25;98762.50;;;12.19;65.82
83424;BME280;73355;49.044;8.686;2024-03-23T05:34:51;98764.69;;;12.11;65.79
83424;BME280;73355;49.044;8.686;2024-03-23T05:37:21;98767.19;;;12.06;65.35
83424;BME280;73355;49.044;8.686;2024-03-23T05:39:46;98770.00;;;12.02;64.17
83424;BME280;73355;49.044;8.686;2024-03-23T05:42:13;98777.09;;;11.99;62.53
83424;BME280;73355;49.044;8.686;2024-03-23T05:44:39;98780.69;;;11.96;61.64
83424;BME280;73355;49.044;8.686;2024-03-23T05:47:05;98791.06;;;11.89;61.38
83424;BME280;73355;49.044;8.686;2024-03-23T05:49:31;98789.88;;;11.90;60.40
83424;BME280;73355;49.044;8.686;2024-03-23T05:51:56;98796.50;;;11.76;60.61
83424;BME280;73355;49.044;8.686;2024-03-23T05:54:21;98813.72;;;11.73;61.00
83424;BME280;73355;49.044;8.686;2024-03-23T05:56:54;98808.09;;;11.64;61.41
83424;BME280;73355;49.044;8.686;2024-03-23T05:59:22;98823.44;;;11.58;61.58
83424;BME280;73355;49.044;8.686;2024-03-23T06:01:47;98842.88;;;11.60;61.73
83424;BME280;73355;49.044;8.686;2024-03-23T06:04:13;98840.69;;;11.55;61.28
83424;BME280;73355;49.044;8.686;2024-03-23T06:06:41;98844.25;;;11.52;61.05
83424;BME280;73355;49.044;8.686;2024-03-23T06:09:06;98845.41;;;11.38;61.26
83424;BME280;73355;49.044;8.686;2024-03-23T06:11:34;98871.66;;;11.32;61.55
83424;BME280;73355;49.044;8.686;2024-03-23T06:14:00;98874.72;;;11.18;62.48
83424;BME280;73355;49.044;8.686;2024-03-23T06:16:25;98896.59;;;11.14;62.98
83424;BME280;73355;49.044;8.686;2024-03-23T06:18:55;98894.16;;;11.04;62.92
83424;BME280;73355;49.044;8.686;2024-03-23T06:21:21;98898.41;;;11.05;63.08
83424;BME280;73355;49.044;8.686;2024-03-23T06:23:51;98909.03;;;10.99;63.76
83424;BME280;73355;49.044;8.686;2024-03-23T06:26:19;98900.34;;;10.88;63.65
83424;BME280;73355;49.044;8.686;2024-03-23T06:28:46;98900.84;;;10.83;63.56
83424;BME280;73355;49.044;8.686;2024-03-23T06:31:11;98913.38;;;10.81;63.87
83424;BME280;73355;49.044;8.686;2024-03-23T06:33:37;98916.00;;;10.84;64.03
83424;BME280;73355;49.044;8.686;2024-03-23T06:36:07;98921.44;;;10.68;64.17
83424;BME280;73355;49.044;8.686;2024-03-23T06:38:33;98931.13;;;10.69;64.09
83424;BME280;73355;49.044;8.686;2024-03-23T06:41:02;98929.75;;;10.61;63.91
83424;BME280;73355;49.044;8.686;2024-03-23T06:43:28;98924.91;;;10.52;63.56
83424;BME280;73355;49.044;8.686;2024-03-23T06:45:54;98933.13;;;10.49;63.70
83424;BME280;73355;49.044;8.686;2024-03-23T06:48:20;98930.06;;;10.47;63.08
83424;BME280;73355;49.044;8.686;2024-03-23T06:50:48;98933.28;;;10.42;63.02
83424;BME280;73355;49.044;8.686;2024-03-23T06:53:14;98946.91;;;10.42;62.71
83424;BME280;73355;49.044;8.686;2024-03-23T06:55:40;98954.97;;;10.45;62.13
83424;BME280;73355;49.044;8.686;2024-03-23T06:58:06;98961.53;;;10.28;62.69
83424;BME280;73355;49.044;8.686;2024-03-23T07:00:32;98964.34;;;10.24;62.85
83424;BME280;73355;49.044;8.686;2024-03-23T07:02:58;98984.91;;;10.25;63.00
83424;BME280;73355;49.044;8.686;2024-03-23T07:05:23;98981.84;;;10.23;63.38
83424;BME280;73355;49.044;8.686;2024-03-23T07:07:49;98980.31;;;10.22;63.57
83424;BME280;73355;49.044;8.686;2024-03-23T07:10:14;98989.66;;;10.21;63.37
83424;BME280;73355;49.044;8.686;2024-03-23T07:12:39;98994.69;;;10.23;63.58
83424;BME280;73355;49.044;8.686;2024-03-23T07:15:05;98994.69;;;10.23;63.46
83424;BME280;73355;49.044;8.686;2024-03-23T07:17:37;99003.53;;;10.27;63.11
83424;BME280;73355;49.044;8.686;2024-03-23T07:20:02;99017.53;;;10.25;63.31
83424;BME280;73355;49.044;8.686;2024-03-23T07:22:35;99015.66;;;10.22;63.76
83424;BME280;73355;49.044;8.686;2024-03-23T07:25:01;99014.47;;;10.23;64.24
83424;BME280;73355;49.044;8.686;2024-03-23T07:27:31;99026.53;;;10.22;63.88
83424;BME280;73355;49.044;8.686;2024-03-23T07:30:06;99040.63;;;10.17;64.54
83424;BME280;73355;49.044;8.686;2024-03-23T07:32:32;99048.50;;;10.08;65.10
83424;BME280;73355;49.044;8.686;2024-03-23T07:34:57;99080.44;;;10.04;65.01
83424;BME280;73355;49.044;8.686;2024-03-23T07:37:22;99052.50;;;9.80;65.48
83424;BME280;73355;49.044;8.686;2024-03-23T07:39:47;99063.06;;;9.75;65.43
83424;BME280;73355;49.044;8.686;2024-03-23T07:42:16;99059.75;;;9.64;66.30
83424;BME280;73355;49.044;8.686;2024-03-23T07:44:41;99087.19;;;9.46;66.86
83424;BME280;73355;49.044;8.686;2024-03-23T07:47:07;99103.25;;;9.37;67.27
83424;BME280;73355;49.044;8.686;2024-03-23T07:49:32;99101.78;;;9.32;67.44
83424;BME280;73355;49.044;8.686;2024-03-23T07:51:57;99119.63;;;9.33;68.20
83424;BME280;73355;49.044;8.686;2024-03-23T07:54:25;99119.09;;;9.42;67.29
83424;BME280;73355;49.044;8.686;2024-03-23T07:56:51;99114.44;;;9.42;67.28
83424;BME280;73355;49.044;8.686;2024-03-23T07:59:16;99123.66;;;9.48;67.26
83424;BME280;73355;49.044;8.686;2024-03-23T08:01:41;99128.63;;;9.53;68.10
83424;BME280;73355;49.044;8.686;2024-03-23T08:04:06;99140.94;;;9.62;67.09
83424;BME280;73355;49.044;8.686;2024-03-23T08:06:52;99150.22;;;9.64;66.54
83424;BME280;73355;49.044;8.686;2024-03-23T08:09:17;99160.81;;;9.55;66.53
83424;BME280;73355;49.044;8.686;2024-03-23T08:11:43;99158.81;;;9.59;67.20
83424;BME280;73355;49.044;8.686;2024-03-23T08:14:11;99170.72;;;9.69;66.64
83424;BME280;73355;49.044;8.686;2024-03-23T08:16:36;99178.41;;;9.74;65.62
83424;BME280;73355;49.044;8.686;2024-03-23T08:19:01;99164.72;;;9.81;64.83
83424;BME280;73355;49.044;8.686;2024-03-23T08:21:28;99163.47;;;9.85;64.42
83424;BME280;73355;49.044;8.686;2024-03-23T08:23:54;99177.31;;;9.94;62.96
83424;BME280;73355;49.044;8.686;2024-03-23T08:26:19;99170.03;;;9.88;63.34
83424;BME280;73355;49.044;8.686;2024-03-23T08:28:44;99182.50;;;9.85;63.46
83424;BME280;73355;49.044;8.686;2024-03-23T08:31:12;99184.47;;;9.85;62.84
83424;BME280;73355;49.044;8.686;2024-03-23T08:33:38;99179.84;;;9.82;62.63
83424;BME280;73355;49.044;8.686;2024-03-23T08:36:05;99183.78;;;9.77;62.47
83424;BME280;73355;49.044;8.686;2024-03-23T08:38:39;99185.38;;;9.75;61.45
83424;BME280;73355;49.044;8.686;2024-03-23T08:43:35;99197.06;;;9.72;61.89
83424;BME280;73355;49.044;8.686;2024-03-23T08:46:07;99204.91;;;9.66;62.17
83424;BME280;73355;49.044;8.686;2024-03-23T08:48:37;99210.34;;;9.66;62.31
83424;BME280;73355;49.044;8.686;2024-03-23T08:51:04;99210.97;;;9.77;61.48
83424;BME280;73355;49.044;8.686;2024-03-23T08:53:29;99216.47;;;9.74;60.62
83424;BME280;73355;49.044;8.686;2024-03-23T08:55:56;99214.47;;;9.78;58.86
83424;BME280;73355;49.044;8.686;2024-03-23T08:58:24;99220.81;;;9.68;58.68
83424;BME280;73355;49.044;8.686;2024-03-23T09:00:50;99225.88;;;9.66;58.83
83424;BME280;73355;49.044;8.686;2024-03-23T09:03:22;99228.53;;;9.69;58.58
83424;BME280;73355;49.044;8.686;2024-03-23T09:05:47;99220.38;;;9.73;57.41
83424;BME280;73355;49.044;8.686;2024-03-23T09:08:13;99226.25;;;9.68;57.37
83424;BME280;73355;49.044;8.686;2024-03-23T09:10:39;99222.56;;;9.81;56.89
83424;BME280;73355;49.044;8.686;2024-03-23T09:13:04;99213.16;;;10.13;56.44
83424;BME280;73355;49.044;8.686;2024-03-23T09:15:30;99227.44;;;10.44;56.53
83424;BME280;73355;49.044;8.686;2024-03-23T09:18:05;99224.91;;;10.80;54.71
83424;BME280;73355;49.044;8.686;2024-03-23T09:20:33;99225.81;;;10.93;54.20
83424;BME280;73355;49.044;8.686;2024-03-23T09:22:58;99224.22;;;11.15;51.13
83424;BME280;73355;49.044;8.686;2024-03-23T09:25:24;99225.13;;;11.28;51.59
83424;BME280;73355;49.044;8.686;2024-03-23T09:27:50;99222.56;;;11.57;51.89
83424;BME280;73355;49.044;8.686;2024-03-23T09:30:35;99222.75;;;11.86;50.40
83424;BME280;73355;49.044;8.686;2024-03-23T09:33:02;99232.22;;;11.97;48.05
83424;BME280;73355;49.044;8.686;2024-03-23T09:35:28;99247.22;;;11.73;47.37
83424;BME280;73355;49.044;8.686;2024-03-23T09:37:53;99235.25;;;11.47;47.79
83424;BME280;73355;49.044;8.686;2024-03-23T09:40:18;99235.28;;;11.28;48.51
83424;BME280;73355;49.044;8.686;2024-03-23T09:42:50;99230.09;;;11.13;48.76
83424;BME280;73355;49.044;8.686;2024-03-23T09:45:23;99231.75;;;11.07;47.89
83424;BME280;73355;49.044;8.686;2024-03-23T09:47:51;99233.22;;;10.92;47.32
83424;BME280;73355;49.044;8.686;2024-03-23T09:50:17;99232.28;;;10.79;47.70
83424;BME280;73355;49.044;8.686;2024-03-23T09:52:42;99237.22;;;10.64;48.00
83424;BME280;73355;49.044;8.686;2024-03-23T09:55:16;99241.66;;;10.55;49.25
83424;BME280;73355;49.044;8.686;2024-03-23T09:57:42;99243.66;;;10.51;49.45
83424;BME280;73355;49.044;8.686;2024-03-23T10:00:08;99246.38;;;10.51;49.96
83424;BME280;73355;49.044;8.686;2024-03-23T10:02:34;99263.88;;;10.50;50.56
83424;BME280;73355;49.044;8.686;2024-03-23T10:05:00;99266.72;;;10.19;51.91
83424;BME280;73355;49.044;8.686;2024-03-23T10:07:25;99274.06;;;9.92;53.29
83424;BME280;73355;49.044;8.686;2024-03-23T10:09:53;99277.78;;;9.75;53.63
83424;BME280;73355;49.044;8.686;2024-03-23T10:12:19;99272.88;;;9.63;54.60
83424;BME280;73355;49.044;8.686;2024-03-23T10:14:45;99273.66;;;9.63;54.45
83424;BME280;73355;49.044;8.686;2024-03-23T10:17:21;99279.84;;;9.64;56.02
83424;BME280;73355;49.044;8.686;2024-03-23T10:19:51;99287.28;;;9.60;57.19
83424;BME280;73355;49.044;8.686;2024-03-23T10:22:21;99293.19;;;9.54;57.93
83424;BME280;73355;49.044;8.686;2024-03-23T10:24:46;99294.72;;;9.56;57.67
83424;BME280;73355;49.044;8.686;2024-03-23T10:27:15;99283.00;;;9.62;57.38
83424;BME280;73355;49.044;8.686;2024-03-23T10:29:42;99281.47;;;9.61;57.10
83424;BME280;73355;49.044;8.686;2024-03-23T10:32:13;99271.03;;;9.56;57.08
83424;BME280;73355;49.044;8.686;2024-03-23T10:34:39;99258.31;;;9.49;57.54
83424;BME280;73355;49.044;8.686;2024-03-23T10:37:05;99250.94;;;9.50;57.29
83424;BME280;73355;49.044;8.686;2024-03-23T10:39:34;99256.00;;;9.48;57.50
83424;BME280;73355;49.044;8.686;2024-03-23T10:42:05;99262.66;;;9.43;57.81
83424;BME280;73355;49.044;8.686;2024-03-23T10:44:31;99264.56;;;9.46;57.73
83424;BME280;73355;49.044;8.686;2024-03-23T10:47:03;99273.06;;;9.48;57.93
83424;BME280;73355;49.044;8.686;2024-03-23T10:49:30;99278.09;;;9.50;58.46
83424;BME280;73355;49.044;8.686;2024-03-23T10:51:57;99285.09;;;9.47;59.02
83424;BME280;73355;49.044;8.686;2024-03-23T10:54:24;99280.81;;;9.50;59.64
83424;BME280;73355;49.044;8.686;2024-03-23T10:57:04;99285.03;;;9.54;60.17
83424;BME280;73355;49.044;8.686;2024-03-23T10:59:37;99280.31;;;9.59;60.45
83424;BME280;73355;49.044;8.686;2024-03-23T11:02:03;99286.47;;;9.63;60.41
83424;BME280;73355;49.044;8.686;2024-03-23T11:04:30;99287.53;;;9.72;60.76
83424;BME280;73355;49.044;8.686;2024-03-23T11:06:56;99287.00;;;9.84;60.64
83424;BME280;73355;49.044;8.686;2024-03-23T11:09:42;99267.91;;;10.15;59.73
83424;BME280;73355;49.044;8.686;2024-03-23T11:14:59;99264.34;;;10.91;56.54
83424;BME280;73355;49.044;8.686;2024-03-23T11:17:32;99258.63;;;11.05;55.94
83424;BME280;73355;49.044;8.686;2024-03-23T11:20:02;99258.66;;;11.25;55.02
83424;BME280;73355;49.044;8.686;2024-03-23T11:25:02;99255.28;;;11.57;54.03
83424;BME280;73355;49.044;8.686;2024-03-23T11:27:32;99259.56;;;11.78;53.61
83424;BME280;73355;49.044;8.686;2024-03-23T11:30:18;99248.97;;;11.99;53.09
83424;BME280;73355;49.044;8.686;2024-03-23T11:32:44;99248.19;;;12.31;51.92
83424;BME280;73355;49.044;8.686;2024-03-23T11:35:10;99242.72;;;12.48;49.46
83424;BME280;73355;49.044;8.686;2024-03-23T11:37:46;99246.06;;;12.55;48.63
83424;BME280;73355;49.044;8.686;2024-03-23T11:40:18;99234.91;;;12.50;48.65
83424;BME280;73355;49.044;8.686;2024-03-23T11:42:44;99255.09;;;12.36;48.70
83424;BME280;73355;49.044;8.686;2024-03-23T11:45:09;99244.97;;;12.36;49.88
83424;BME280;73355;49.044;8.686;2024-03-23T11:47:35;99239.50;;;12.53;49.31
83424;BME280;73355;49.044;8.686;2024-03-23T11:50:19;99238.31;;;12.70;48.45
83424;BME280;73355;49.044;8.686;2024-03-23T11:52:44;99219.94;;;12.70;48.76
83424;BME280;73355;49.044;8.686;2024-03-23T11:55:09;99227.44;;;12.66;48.37
83424;BME280;73355;49.044;8.686;2024-03-23T11:57:35;99243.69;;;12.57;48.30
83424;BME280;73355;49.044;8.686;2024-03-23T12:00:00;99219.78;;;12.61;48.56
83424;BME280;73355;49.044;8.686;2024-03-23T12:02:31;99224.63;;;12.86;48.65
83424;BME280;73355;49.044;8.686;2024-03-23T12:04:57;99230.06;;;12.86;48.01
83424;BME280;73355;49.044;8.686;2024-03-23T12:07:22;99223.03;;;12.56;48.39
83424;BME280;73355;49.044;8.686;2024-03-23T12:10:03;99226.31;;;12.19;49.11
83424;BME280;73355;49.044;8.686;2024-03-23T12:12:43;99229.50;;;11.97;50.44
83424;BME280;73355;49.044;8.686;2024-03-23T12:15:09;99227.75;;;12.07;49.75
83424;BME280;73355;49.044;8.686;2024-03-23T12:17:35;99211.69;;;12.09;50.57
83424;BME280;73355;49.044;8.686;2024-03-23T12:20:01;99205.16;;;12.23;49.42
83424;BME280;73355;49.044;8.686;2024-03-23T12:22:27;99193.44;;;12.38;50.11
83424;BME280;73355;49.044;8.686;2024-03-23T12:25:10;99199.44;;;12.78;50.27
83424;BME280;73355;49.044;8.686;2024-03-23T12:27:35;99186.31;;;13.02;48.13
83424;BME280;73355;49.044;8.686;2024-03-23T12:30:01;99193.31;;;13.03;47.87
83424;BME280;73355;49.044;8.686;2024-03-23T12:32:27;99183.78;;;12.95;47.60
83424;BME280;73355;49.044;8.686;2024-03-23T12:34:52;99190.13;;;12.76;48.60
83424;BME280;73355;49.044;8.686;2024-03-23T12:37:26;99177.50;;;12.82;49.36
83424;BME280;73355;49.044;8.686;2024-03-23T12:39:51;99184.88;;;12.98;48.92
83424;BME280;73355;49.044;8.686;2024-03-23T12:42:17;99174.44;;;13.09;47.13
83424;BME280;73355;49.044;8.686;2024-03-23T12:44:42;99163.25;;;13.03;47.74
83424;BME280;73355;49.044;8.686;2024-03-23T12:47:07;99148.59;;;12.97;47.31
83424;BME280;73355;49.044;8.686;2024-03-23T12:49:32;99158.81;;;13.09;47.67
83424;BME280;73355;49.044;8.686;2024-03-23T12:52:04;99163.78;;;13.40;44.95
83424;BME280;73355;49.044;8.686;2024-03-23T12:54:29;99163.25;;;13.45;43.81
83424;BME280;73355;49.044;8.686;2024-03-23T12:56:56;99166.75;;;13.58;44.64
83424;BME280;73355;49.044;8.686;2024-03-23T12:59:21;99164.38;;;13.60;43.49
83424;BME280;73355;49.044;8.686;2024-03-23T13:01:47;99162.41;;;13.60;42.33
83424;BME280;73355;49.044;8.686;2024-03-23T13:04:12;99198.28;;;13.75;43.06
83424;BME280;73355;49.044;8.686;2024-03-23T13:06:43;99167.63;;;13.42;42.34
83424;BME280;73355;49.044;8.686;2024-03-23T13:09:09;99177.69;;;13.04;43.82
83424;BME280;73355;49.044;8.686;2024-03-23T13:11:34;99188.81;;;12.68;43.97
83424;BME280;73355;49.044;8.686;2024-03-23T13:13:59;99228.69;;;12.33;46.56
83424;BME280;73355;49.044;8.686;2024-03-23T13:16:24;99235.13;;;11.90;48.12
83424;BME280;73355;49.044;8.686;2024-03-23T13:18:50;99247.91;;;11.18;48.18
83424;BME280;73355;49.044;8.686;2024-03-23T13:21:24;99268.56;;;10.49;50.29
83424;BME280;73355;49.044;8.686;2024-03-23T13:23:50;99265.81;;;9.99;52.42
83424;BME280;73355;49.044;8.686;2024-03-23T13:26:16;99264.41;;;9.57;53.44
83424;BME280;73355;49.044;8.686;2024-03-23T13:28:41;99252.72;;;9.30;53.90
83424;BME280;73355;49.044;8.686;2024-03-23T13:31:06;99231.03;;;9.26;55.56
83424;BME280;73355;49.044;8.686;2024-03-23T13:33:33;99237.06;;;9.71;55.51
83424;BME280;73355;49.044;8.686;2024-03-23T13:36:02;99223.25;;;9.85;55.38
83424;BME280;73355;49.044;8.686;2024-03-23T13:38:28;99215.28;;;10.02;53.38
83424;BME280;73355;49.044;8.686;2024-03-23T13:43:20;99218.66;;;10.36;52.24
83424;BME280;73355;49.044;8.686;2024-03-23T13:45:52;99221.81;;;10.77;51.14
83424;BME280;73355;49.044;8.686;2024-03-23T13:48:26;99215.50;;;11.04;48.97
83424;BME280;73355;49.044;8.686;2024-03-23T13:53:23;99231.19;;;10.96;48.18
83424;BME280;73355;49.044;8.686;2024-03-23T13:55:49;99232.44;;;10.92;48.68
83424;BME280;73355;49.044;8.686;2024-03-23T13:58:15;99227.97;;;10.82;48.99
83424;BME280;73355;49.044;8.686;2024-03-23T14:00:49;99244.91;;;10.69;47.52
83424;BME280;73355;49.044;8.686;2024-03-23T14:03:15;99230.28;;;10.60;47.98
83424;BME280;73355;49.044;8.686;2024-03-23T14:05:41;99238.09;;;10.81;47.54
83424;BME280;73355;49.044;8.686;2024-03-23T14:08:10;99226.72;;;11.06;47.51
83424;BME280;73355;49.044;8.686;2024-03-23T14:10:35;99221.16;;;11.33;47.29
83424;BME280;73355;49.044;8.686;2024-03-23T14:13:11;99220.47;;;11.65;47.45